Mirage, Colorado
Current Conditions -  °F | °C
As of 11:10 PM on Tuesday 25 Nov 2014 (Local Time) from KRCV Reporting Station
Clear Clear  
Wind Chill: -5°   Ceiling: Unl
Heat Index: -5°   Visibility: 10mi
Dew Point: -12°   Wind: 3mph
Humidity: 56%   Direction: 50°NE
Pressure: 30.25"   Gusts: NA
Location:  37.9777°N, 105.779°W
Report Text: KRCV 260610Z AUTO 05003KT 10SM CLR M05/M12 A3025 RMK AO2 T10471124
Loading
Personal Weather Stations






























Interactive Weather Map New forecast layout! Learn more

10-Day Weather Forecast

Advertisements
Track Severe Weather on mobile